ADDS METAR Data INFO
IDs: Format: Raw Decoded Include TAF

Data at: 1131 UTC 17 Jul 2018

KMGJ 171105Z AUTO 21005KT 10SM FEW003 24/22 A2985 RMK AO2 T02390222 $
KMGJ 171054Z AUTO 20006KT 10SM CLR 24/22 A2985 RMK AO2 SLP104 T02390222 $
KMGJ 170954Z AUTO 00000KT 7SM CLR 22/22 A2986 RMK AO2 SLP108 T02220217 $
KMGJ 170854Z AUTO 20004KT 10SM CLR 23/21 A2986 RMK AO2 SLP108 T02280211 56009 $
KMGJ 170754Z AUTO 21005KT 10SM CLR 23/22 A2986 RMK AO2 SLP109 T02280217 $
KMGJ 170654Z AUTO 20005KT 10SM CLR 23/22 A2987 RMK AO2 SLP112 T02330222 $
KMGJ 170554Z AUTO 00000KT 10SM CLR 23/22 A2989 RMK AO2 SLP118 T02280217 10283 20228 58003 $
KMGJ 170454Z AUTO 00000KT 10SM CLR 23/22 A2990 RMK AO2 SLP120 T02330222 403330200 $
KMGJ 170354Z AUTO 21003KT 10SM CLR 23/22 A2990 RMK AO2 SLP121 T02280217 $
KMGJ 170254Z AUTO 00000KT 10SM CLR 24/23 A2990 RMK AO2 SLP121 T02440228 50004 $
KMGJ 170154Z AUTO 00000KT 10SM CLR 24/23 A2990 RMK AO2 SLP123 T02440233 $
KMGJ 170054Z AUTO 00000KT 10SM CLR 27/23 A2989 RMK AO2 SLP118 T02670233 $
KMGJ 162354Z AUTO 18003KT 10SM CLR 28/23 A2988 RMK AO2 SLP116 T02830228 10333 20278 56005 $
KMGJ 162254Z AUTO 21008KT 10SM CLR 31/22 A2989 RMK AO2 SLP118 T03060222 $
KMGJ 162154Z AUTO 22010KT 10SM CLR 32/22 A2989 RMK AO2 LTG DSNT E AND SE SLP118 T03170222 $
KMGJ 162054Z AUTO 23011KT 10SM CLR 32/22 A2990 RMK AO2 LTG DSNT NE SLP122 T03220222 56013 $
KMGJ 161954Z AUTO 24009KT 10SM CLR 31/22 A2991 RMK AO2 LTG DSNT N AND NW SLP124 T03110217 $
KMGJ 161854Z AUTO 21006KT 10SM FEW120 32/21 A2993 RMK AO2 LTG DSNT NW SLP131 T03170206 $
KMGJ 161754Z AUTO VRB03KT 10SM CLR 33/21 A2994 RMK AO2 LTG DSNT W SLP135 T03280211 10328 20233 58015 $
KMGJ 161654Z AUTO 15005KT 10SM CLR 32/21 A2996 RMK AO2 SLP141 T03170211 $
KMGJ 161554Z AUTO 00000KT 10SM CLR 31/22 A2997 RMK AO2 SLP147 T03060217 $
KMGJ 161454Z AUTO 19006KT 10SM CLR 29/23 A2998 RMK AO2 SLP150 T02940228 58003 $
KMGJ 161354Z AUTO 00000KT 10SM CLR 28/23 A2999 RMK AO2 SLP151 T02780228 $
KMGJ 161254Z AUTO 24003KT 10SM CLR 26/23 A2999 RMK AO2 SLP154 T02610228 $
KMGJ 161154Z AUTO 00000KT 10SM CLR 23/22 A2999 RMK AO2 SLP154 70009 T02330217 10233 20200 50007 $
KMGJ 161054Z AUTO 03004KT 8SM CLR 22/21 A2999 RMK AO2 SLP154 T02170206 $
KMGJ 161002Z AUTO 00000KT 4SM BR FEW003 20/19 A2998 RMK AO2 T02000194 $
KMGJ 161000Z AUTO 00000KT 1 1/4SM BR FEW003 20/19 A2998 RMK AO2 T02000194 $
KMGJ 160954Z AUTO 00000KT 3/4SM BR VV003 20/20 A2998 RMK AO2 VIS 1/4V5 SLP149 T02000200 $
KMGJ 160951Z AUTO 00000KT 1 1/4SM BR CLR 21/20 A2998 RMK AO2 VIS 1/4V5 $
KMGJ 160854Z AUTO 00000KT 10SM CLR 21/21 A2997 RMK AO2 SLP146 T02110206 58002 $
KMGJ 160754Z AUTO 21003KT 10SM CLR 21/21 A2997 RMK AO2 SLP145 T02110206 $
KMGJ 160654Z AUTO 21003KT 10SM CLR 22/21 A2998 RMK AO2 SLP147 T02170206 $
KMGJ 160554Z AUTO 22003KT 10SM CLR 22/21 A2998 RMK AO2 SLP148 60000 T02220211 10250 20217 50001 $
KMGJ 160454Z AUTO 22003KT 9SM CLR 22/22 A2998 RMK AO2 SLP149 T02220217 403060206 $
KMGJ 160437Z AUTO 00000KT 10SM CLR 22/22 A2998 RMK AO2 T02220217 $
KMGJ 160430Z AUTO 00000KT 2 1/2SM BR CLR 22/22 A2998 RMK AO2 T02220217 $
KMGJ 160354Z AUTO 00000KT 10SM CLR 23/22 A2997 RMK AO2 SLP148 T02280222 $
KMGJ 160254Z AUTO 00000KT 10SM SCT100 23/23 A2997 RMK AO2 SLP147 60000 T02330228 52008 $
KMGJ 160154Z AUTO 00000KT 10SM FEW080 SCT100 24/23 A2997 RMK AO2 SLP145 T02390228 $
KMGJ 160054Z AUTO 00000KT 10SM BKN080 BKN090 BKN110 24/23 A2995 RMK AO2 RAE21 SLP141 P0000 T02440228 $
KMGJ 160003Z AUTO 01003KT 10SM -RA FEW060 FEW070 OVC100 25/23 A2995 RMK AO2 P0000 T02500233 $
KMGJ 152354Z AUTO 35005KT 10SM VCTS -RA SCT070 OVC100 25/23 A2995 RMK AO2 LTG DSNT NW RAB19E36B43 TSB37E52 SLP139 P0000 60009 T02500233 10306 20239 53002 $
KMGJ 152337Z AUTO 01003KT 10SM TS SCT070 BKN090 OVC110 26/23 A2994 RMK AO2 LTG DSNT W AND NW RAB19E36 TSB37 P0000 T02560233 $